createdAt,value
2023-05-14T00:00:08.616Z,8.67
2023-05-14T00:02:39.102Z,9.32
2023-05-14T00:05:05.922Z,9.40
2023-05-14T00:07:32.593Z,9.05
2023-05-14T00:09:59.999Z,10.10
2023-05-14T00:12:30.114Z,9.57
2023-05-14T00:14:56.804Z,9.55
2023-05-14T00:17:25.815Z,9.55
2023-05-14T00:19:55.055Z,9.73
2023-05-14T00:22:24.021Z,9.63
2023-05-14T00:24:56.437Z,9.30
2023-05-14T00:27:22.900Z,9.02
2023-05-14T00:29:52.425Z,9.20
2023-05-14T00:32:21.612Z,9.40
2023-05-14T00:34:48.004Z,9.10
2023-05-14T00:37:17.409Z,8.90
2023-05-14T00:39:43.898Z,9.35
2023-05-14T00:42:10.353Z,9.02
2023-05-14T00:44:42.418Z,8.52
2023-05-14T00:47:09.037Z,9.10
2023-05-14T00:49:35.758Z,9.67
2023-05-14T00:52:06.034Z,8.40
2023-05-14T00:54:32.886Z,9.48
2023-05-14T00:57:00.142Z,9.70
2023-05-14T00:59:35.893Z,9.07
2023-05-14T01:02:02.404Z,9.13
2023-05-14T01:04:31.919Z,8.70
2023-05-14T01:07:25.941Z,8.68
2023-05-14T01:10:08.503Z,9.13
2023-05-14T01:12:57.320Z,8.80
2023-05-14T01:15:32.570Z,8.90
2023-05-14T01:18:10.820Z,8.43
2023-05-14T01:20:46.664Z,9.27
2023-05-14T01:23:13.039Z,9.25
2023-05-14T01:25:42.162Z,8.88
2023-05-14T01:28:26.481Z,8.33
2023-05-14T01:33:53.486Z,8.60
2023-05-14T01:36:20.207Z,8.73
2023-05-14T01:38:55.109Z,8.82
2023-05-14T01:41:22.997Z,9.60
2023-05-14T01:43:51.419Z,9.05
2023-05-14T01:46:20.635Z,9.07
2023-05-14T01:48:47.032Z,9.57
2023-05-14T01:51:18.521Z,10.00
2023-05-14T01:53:44.907Z,9.20
2023-05-14T01:56:11.315Z,8.95
2023-05-14T01:58:37.656Z,9.43
2023-05-14T02:01:04.266Z,9.23
2023-05-14T02:03:35.089Z,9.00
2023-05-14T02:08:46.647Z,9.45
2023-05-14T02:11:16.531Z,9.15
2023-05-14T02:13:43.751Z,9.45
2023-05-14T02:16:15.605Z,9.10
2023-05-14T02:18:42.005Z,9.13
2023-05-14T02:21:08.424Z,8.73
2023-05-14T02:23:42.275Z,9.50
2023-05-14T02:26:10.624Z,9.95
2023-05-14T02:28:47.142Z,9.80
2023-05-14T02:31:17.684Z,9.40
2023-05-14T02:33:47.957Z,10.63
2023-05-14T02:36:14.299Z,9.35
2023-05-14T02:38:44.514Z,9.60
2023-05-14T02:41:10.857Z,9.20
2023-05-14T02:43:37.234Z,8.80
2023-05-14T02:46:16.889Z,8.80
2023-05-14T02:48:45.197Z,9.27
2023-05-14T02:51:19.369Z,9.13
2023-05-14T02:53:46.267Z,9.02
2023-05-14T02:56:18.368Z,8.90
2023-05-14T02:58:44.713Z,8.85
2023-05-14T03:01:16.857Z,8.70
2023-05-14T03:03:47.690Z,8.43
2023-05-14T03:06:22.971Z,9.00
2023-05-14T03:08:49.296Z,9.17
2023-05-14T03:11:27.901Z,9.00
2023-05-14T03:13:54.271Z,9.07
2023-05-14T03:16:28.646Z,9.13
2023-05-14T03:18:55.117Z,9.38
2023-05-14T03:24:10.229Z,9.07
2023-05-14T03:26:40.324Z,8.98
2023-05-14T03:29:12.939Z,9.35
2023-05-14T03:31:43.665Z,9.68
2023-05-14T03:34:13.488Z,8.67
2023-05-14T03:36:43.020Z,9.50
2023-05-14T03:39:52.712Z,10.25
2023-05-14T03:42:17.910Z,8.93
2023-05-14T03:44:47.302Z,9.75
2023-05-14T03:47:16.074Z,9.73
2023-05-14T03:49:48.406Z,9.57
2023-05-14T03:52:14.798Z,9.77
2023-05-14T03:54:49.535Z,9.07
2023-05-14T03:57:15.911Z,9.50
2023-05-14T03:59:45.187Z,9.27
2023-05-14T04:02:14.421Z,9.95
2023-05-14T04:04:42.191Z,9.40
2023-05-14T04:07:11.516Z,8.82
2023-05-14T04:09:40.801Z,8.90
2023-05-14T04:12:15.616Z,8.73
2023-05-14T04:14:42.007Z,9.23
2023-05-14T04:17:08.595Z,8.57
2023-05-14T04:19:39.335Z,8.73
2023-05-14T04:22:06.295Z,8.63
2023-05-14T04:24:32.703Z,8.73
2023-05-14T04:27:00.646Z,7.95
2023-05-14T04:29:29.989Z,7.82
2023-05-14T04:31:56.353Z,8.07
2023-05-14T04:34:27.256Z,8.15
2023-05-14T04:36:53.585Z,7.63
2023-05-14T04:39:19.908Z,7.80
2023-05-14T04:41:49.311Z,8.35
2023-05-14T04:44:18.586Z,8.32
2023-05-14T04:46:44.905Z,7.78
2023-05-14T04:49:15.391Z,8.20
2023-05-14T04:51:41.747Z,6.93
2023-05-14T04:54:08.168Z,6.60
2023-05-14T04:56:43.447Z,6.88
2023-05-14T04:59:09.834Z,6.75
2023-05-14T05:04:22.252Z,6.07
2023-05-14T05:06:51.753Z,6.22
2023-05-14T05:09:25.707Z,6.25
2023-05-14T05:11:55.149Z,6.30
2023-05-14T05:14:44.777Z,6.43
2023-05-14T05:17:11.171Z,6.53
2023-05-14T05:19:43.560Z,6.32
2023-05-14T05:22:14.008Z,6.88
2023-05-14T05:24:40.421Z,6.30
2023-05-14T05:27:06.863Z,6.10
2023-05-14T05:29:36.535Z,6.80
2023-05-14T05:32:06.734Z,7.57
2023-05-14T05:34:39.412Z,6.65
2023-05-14T05:37:12.632Z,6.97
2023-05-14T05:39:39.577Z,6.07
2023-05-14T05:42:09.215Z,6.53
2023-05-14T05:44:35.712Z,6.22
2023-05-14T05:47:07.165Z,6.18
2023-05-14T05:49:33.659Z,6.55
2023-05-14T05:52:00.172Z,6.67
2023-05-14T05:54:27.188Z,6.45
2023-05-14T05:57:00.753Z,6.25
2023-05-14T05:59:31.034Z,7.13
2023-05-14T06:02:00.316Z,6.97
2023-05-14T06:04:26.767Z,6.10
2023-05-14T06:06:58.271Z,7.25
2023-05-14T06:09:24.678Z,6.55
2023-05-14T06:11:51.039Z,6.25
2023-05-14T06:14:18.739Z,7.00
2023-05-14T06:16:48.187Z,6.60
2023-05-14T06:19:14.767Z,6.63
2023-05-14T06:21:49.782Z,6.60
2023-05-14T06:24:16.516Z,6.55
2023-05-14T06:26:45.988Z,5.97
2023-05-14T06:29:15.542Z,6.23
2023-05-14T06:31:42.143Z,5.95
2023-05-14T06:34:12.257Z,6.05
2023-05-14T06:36:38.660Z,5.75
2023-05-14T06:39:05.202Z,6.38
2023-05-14T06:41:35.511Z,5.57
2023-05-14T06:44:04.827Z,5.70
2023-05-14T06:46:33.765Z,6.55
2023-05-14T06:49:00.621Z,5.88
2023-05-14T06:51:27.262Z,5.30
2023-05-14T06:54:07.707Z,5.40
2023-05-14T06:56:34.548Z,5.95
2023-05-14T06:59:06.782Z,5.95
2023-05-14T07:01:33.229Z,5.60
2023-05-14T07:03:59.636Z,6.30
2023-05-14T07:06:35.607Z,5.70
2023-05-14T07:09:02.071Z,5.65
2023-05-14T07:11:28.987Z,5.65
2023-05-14T07:13:57.849Z,5.55
2023-05-14T07:16:24.260Z,5.65
2023-05-14T07:21:38.520Z,5.88
2023-05-14T07:24:05.445Z,6.03
2023-05-14T07:26:31.848Z,5.18
2023-05-14T07:29:07.289Z,5.20
2023-05-14T07:31:33.851Z,5.13
2023-05-14T07:34:00.643Z,4.40
2023-05-14T07:36:31.477Z,5.88
2023-05-14T07:38:57.927Z,4.88
2023-05-14T07:41:27.836Z,5.68
2023-05-14T07:43:57.201Z,5.50
2023-05-14T07:46:31.316Z,4.85
2023-05-14T07:49:00.781Z,5.88
2023-05-14T07:51:33.779Z,5.65
2023-05-14T07:54:03.123Z,5.78
2023-05-14T07:56:29.452Z,5.40
2023-05-14T07:58:58.585Z,6.25
2023-05-14T08:01:25.091Z,5.85
2023-05-14T08:03:51.497Z,5.72
2023-05-14T08:06:22.813Z,5.70
2023-05-14T08:08:49.221Z,5.53
2023-05-14T08:11:15.655Z,5.90
2023-05-14T08:13:47.043Z,6.20
2023-05-14T08:16:13.418Z,7.28
2023-05-14T08:18:40.216Z,6.57
2023-05-14T08:21:09.153Z,5.83
2023-05-14T08:23:38.948Z,5.82
2023-05-14T08:26:05.406Z,6.43
2023-05-14T08:28:35.304Z,5.95
2023-05-14T08:31:01.688Z,5.88
2023-05-14T08:33:28.087Z,6.33
2023-05-14T08:35:58.725Z,6.15
2023-05-14T08:38:25.362Z,6.72
2023-05-14T08:41:12.760Z,5.53
2023-05-14T08:46:40.302Z,5.33
2023-05-14T08:49:31.945Z,5.28
2023-05-14T08:51:59.812Z,5.38
2023-05-14T08:54:29.987Z,4.85
2023-05-14T08:57:00.105Z,5.30
2023-05-14T08:59:29.838Z,5.37
2023-05-14T09:02:02.733Z,5.43
2023-05-14T09:04:31.400Z,4.43
2023-05-14T09:07:02.010Z,4.85
2023-05-14T09:09:31.130Z,4.45
2023-05-14T09:12:05.970Z,4.97
2023-05-14T09:20:00.146Z,5.15
2023-05-14T09:22:32.980Z,6.15
2023-05-14T09:25:05.288Z,4.57
2023-05-14T09:27:35.583Z,4.60
2023-05-14T09:30:14.576Z,4.43
2023-05-14T09:32:46.240Z,4.40
2023-05-14T09:35:19.399Z,4.35
2023-05-14T09:37:51.966Z,4.53
2023-05-14T09:40:23.838Z,4.88
2023-05-14T09:42:59.017Z,5.32
2023-05-14T09:45:25.459Z,4.57
2023-05-14T09:50:46.015Z,5.17
2023-05-14T09:53:15.366Z,5.03
2023-05-14T09:55:47.703Z,4.90
2023-05-14T09:58:24.331Z,4.53
2023-05-14T10:00:51.681Z,4.35
2023-05-14T10:06:14.050Z,4.15
2023-05-14T10:08:45.916Z,4.50
2023-05-14T10:11:37.224Z,4.53
2023-05-14T10:17:19.065Z,3.67
2023-05-14T10:19:54.096Z,4.60
2023-05-14T10:22:26.748Z,4.72
2023-05-14T10:24:59.676Z,4.30
2023-05-14T10:27:30.337Z,4.30
2023-05-14T10:30:00.510Z,4.27
2023-05-14T10:32:33.046Z,4.63
2023-05-14T10:35:04.280Z,4.35
2023-05-14T10:37:30.860Z,4.13
2023-05-14T10:39:57.138Z,4.68
2023-05-14T10:42:27.748Z,4.10
2023-05-14T10:44:58.749Z,4.40
2023-05-14T10:47:30.378Z,4.22
2023-05-14T10:49:58.841Z,4.20
2023-05-14T10:52:29.162Z,4.70
2023-05-14T10:57:52.605Z,4.15
2023-05-14T11:00:21.496Z,5.00
2023-05-14T11:02:48.030Z,4.15
2023-05-14T11:05:19.889Z,4.75
2023-05-14T11:07:50.270Z,4.17
2023-05-14T11:10:21.292Z,3.78
2023-05-14T11:12:52.022Z,4.75
2023-05-14T11:15:31.754Z,3.95
2023-05-14T11:17:58.160Z,3.92
2023-05-14T11:20:27.894Z,4.20
2023-05-14T11:22:57.228Z,3.85
2023-05-14T11:25:28.212Z,4.40
2023-05-14T11:28:00.725Z,4.10
2023-05-14T11:33:11.966Z,4.30
2023-05-14T11:35:46.486Z,4.57
2023-05-14T11:38:24.186Z,4.43
2023-05-14T11:43:38.702Z,3.35
2023-05-14T11:46:08.433Z,4.47
2023-05-14T11:48:34.985Z,4.10
2023-05-14T11:51:05.885Z,3.95
2023-05-14T11:53:32.454Z,4.00
2023-05-14T11:55:59.090Z,3.90
2023-05-14T11:58:29.042Z,3.80
2023-05-14T12:00:55.737Z,3.75
2023-05-14T12:06:11.124Z,3.88
2023-05-14T12:08:40.306Z,4.22
2023-05-14T12:11:06.998Z,3.83
2023-05-14T12:13:37.194Z,3.78
2023-05-14T12:16:06.709Z,3.50
2023-05-14T12:18:34.731Z,4.20
2023-05-14T12:21:08.369Z,4.10
2023-05-14T12:23:38.497Z,3.67
2023-05-14T12:26:10.889Z,2.85
2023-05-14T12:28:43.269Z,3.45
2023-05-14T12:31:12.788Z,3.45
2023-05-14T12:33:39.207Z,3.38
2023-05-14T12:39:03.437Z,3.60
2023-05-14T12:41:33.188Z,3.65
2023-05-14T12:44:00.154Z,3.65
2023-05-14T12:46:31.821Z,4.35
2023-05-14T12:49:00.633Z,4.33
2023-05-14T12:51:27.121Z,3.25
2023-05-14T12:54:07.795Z,3.38
2023-05-14T12:56:35.245Z,3.25
2023-05-14T12:59:07.644Z,4.43
2023-05-14T13:01:34.110Z,4.63
2023-05-14T13:04:04.807Z,4.47
2023-05-14T13:06:31.733Z,3.50
2023-05-14T13:09:07.483Z,4.57
2023-05-14T13:11:34.152Z,3.83
2023-05-14T13:14:02.249Z,3.57
2023-05-14T13:16:29.646Z,3.75
2023-05-14T13:18:59.474Z,3.55
2023-05-14T13:21:33.587Z,3.38
2023-05-14T13:24:03.339Z,3.30
2023-05-14T13:26:29.775Z,3.43
2023-05-14T13:29:02.184Z,4.00
2023-05-14T13:31:30.210Z,4.05
2023-05-14T13:34:01.961Z,3.42
2023-05-14T13:36:32.446Z,3.10
2023-05-14T13:39:03.001Z,3.03
2023-05-14T13:41:35.656Z,4.15
2023-05-14T13:44:06.126Z,4.28
2023-05-14T13:46:36.520Z,3.35
2023-05-14T13:49:08.062Z,3.90
2023-05-14T13:51:37.550Z,3.40
2023-05-14T13:54:12.095Z,3.80
2023-05-14T13:56:38.512Z,3.88
2023-05-14T13:59:04.937Z,3.60
2023-05-14T14:01:36.294Z,3.90
2023-05-14T14:04:04.245Z,3.50
2023-05-14T14:06:35.340Z,3.15
2023-05-14T14:09:05.296Z,3.85
2023-05-14T14:11:39.972Z,3.90
2023-05-14T14:14:12.465Z,3.60
2023-05-14T14:16:41.272Z,3.13
2023-05-14T14:19:10.750Z,3.55
2023-05-14T14:21:42.214Z,3.75
2023-05-14T14:24:22.505Z,3.30
2023-05-14T14:26:48.875Z,3.30
2023-05-14T14:29:17.985Z,2.93
2023-05-14T14:31:44.639Z,3.10
2023-05-14T14:34:14.649Z,3.17
2023-05-14T14:36:41.012Z,3.30
2023-05-14T14:39:07.356Z,3.63
2023-05-14T14:41:38.028Z,3.60
2023-05-14T14:44:05.496Z,3.25
2023-05-14T14:46:39.898Z,3.17
2023-05-14T14:49:09.792Z,2.90
2023-05-14T14:54:24.100Z,3.60
2023-05-14T14:56:53.760Z,3.15
2023-05-14T14:59:20.231Z,3.40
2023-05-14T15:01:49.734Z,3.80
2023-05-14T15:04:20.070Z,3.42
2023-05-14T15:06:50.494Z,3.70
2023-05-14T15:09:19.958Z,3.80
2023-05-14T15:11:47.129Z,3.10
2023-05-14T15:14:24.052Z,2.72
2023-05-14T15:16:52.856Z,3.83
2023-05-14T15:19:22.230Z,2.87
2023-05-14T15:21:48.656Z,3.20
2023-05-14T15:24:17.696Z,3.33
2023-05-14T15:26:46.232Z,2.83
2023-05-14T15:29:12.686Z,3.15
2023-05-14T15:31:45.228Z,3.10
2023-05-14T15:34:11.671Z,3.40
2023-05-14T15:36:38.078Z,3.03
2023-05-14T15:39:17.471Z,3.00
2023-05-14T15:41:43.912Z,3.30
2023-05-14T15:44:20.434Z,3.40
2023-05-14T15:46:51.805Z,3.42
2023-05-14T15:49:21.470Z,3.22
2023-05-14T15:51:55.365Z,3.03
2023-05-14T15:54:26.201Z,2.72
2023-05-14T15:56:53.657Z,2.83
2023-05-14T15:59:20.112Z,3.10
2023-05-14T16:01:46.572Z,3.60
2023-05-14T16:04:12.952Z,2.95
2023-05-14T16:07:04.166Z,3.05
2023-05-14T16:09:30.728Z,4.10
2023-05-14T16:11:57.235Z,3.75
2023-05-14T16:14:31.977Z,3.30
2023-05-14T16:16:58.445Z,3.30
2023-05-14T16:19:30.869Z,3.67
2023-05-14T16:21:57.257Z,3.30
2023-05-14T16:24:23.908Z,3.70
2023-05-14T16:26:52.660Z,4.15
2023-05-14T16:29:22.345Z,3.53
2023-05-14T16:31:48.809Z,3.88
2023-05-14T16:34:24.370Z,3.57
2023-05-14T16:36:50.890Z,3.50
2023-05-14T16:39:17.553Z,3.17
2023-05-14T16:41:44.019Z,3.30
2023-05-14T16:44:10.602Z,3.40
2023-05-14T16:46:37.042Z,3.60
2023-05-14T16:49:06.895Z,3.78
2023-05-14T16:51:33.559Z,3.20
2023-05-14T16:53:59.979Z,3.22
2023-05-14T16:56:39.680Z,3.42
2023-05-14T16:59:10.242Z,3.50
2023-05-14T17:01:41.764Z,3.83
2023-05-14T17:04:11.363Z,3.58
2023-05-14T17:06:40.764Z,3.67
2023-05-14T17:09:07.717Z,3.53
2023-05-14T17:14:21.022Z,3.97
2023-05-14T17:16:47.449Z,3.42
2023-05-14T17:19:13.926Z,4.30
2023-05-14T17:21:54.370Z,4.68
2023-05-14T17:24:26.805Z,5.03
2023-05-14T17:26:53.261Z,4.50
2023-05-14T17:29:19.697Z,5.32
2023-05-14T17:31:46.117Z,5.53
2023-05-14T17:34:12.613Z,5.65
2023-05-14T17:36:42.837Z,5.47
2023-05-14T17:39:19.736Z,5.10
2023-05-14T17:41:46.179Z,5.25
2023-05-14T17:44:15.945Z,4.97
2023-05-14T17:46:45.803Z,4.90
2023-05-14T17:49:15.659Z,5.13
2023-05-14T17:51:42.340Z,4.72
2023-05-14T17:54:12.619Z,4.97
2023-05-14T17:56:42.038Z,4.97
2023-05-14T17:59:11.206Z,4.78
2023-05-14T18:01:37.657Z,4.93
2023-05-14T18:04:14.869Z,5.15
2023-05-14T18:06:48.878Z,5.20
2023-05-14T18:09:18.098Z,4.90
2023-05-14T18:11:52.816Z,4.68
2023-05-14T18:14:24.158Z,5.10
2023-05-14T18:16:51.198Z,4.80
2023-05-14T18:19:19.922Z,4.78
2023-05-14T18:21:48.067Z,5.03
2023-05-14T18:24:18.731Z,4.32
2023-05-14T18:26:45.135Z,4.33
2023-05-14T18:29:11.597Z,3.78
2023-05-14T18:31:43.329Z,4.70
2023-05-14T18:34:09.732Z,4.78
2023-05-14T18:36:36.132Z,4.82
2023-05-14T18:39:10.932Z,4.07
2023-05-14T18:41:37.370Z,3.92
2023-05-14T18:44:03.795Z,3.83
2023-05-14T18:46:35.129Z,3.95
2023-05-14T18:49:01.570Z,4.45
2023-05-14T18:51:30.769Z,3.47
2023-05-14T18:54:00.983Z,3.33
2023-05-14T18:56:27.508Z,3.95
2023-05-14T18:58:57.410Z,3.58
2023-05-14T19:01:26.609Z,4.28
2023-05-14T19:04:00.517Z,4.00
2023-05-14T19:06:27.946Z,3.97
2023-05-14T19:08:54.378Z,4.15
2023-05-14T19:11:22.865Z,4.07
2023-05-14T19:13:52.109Z,4.53
2023-05-14T19:16:18.953Z,4.67
2023-05-14T19:18:45.652Z,4.10
2023-05-14T19:21:15.155Z,4.32
2023-05-14T19:23:41.716Z,4.97
2023-05-14T19:26:13.183Z,5.15
2023-05-14T19:28:39.843Z,5.00
2023-05-14T19:31:06.312Z,6.10
2023-05-14T19:33:33.080Z,5.40
2023-05-14T19:36:06.807Z,5.07
2023-05-14T19:38:39.277Z,5.10
2023-05-14T19:41:08.773Z,3.87
2023-05-14T19:43:58.936Z,3.95
2023-05-14T19:46:28.035Z,4.28
2023-05-14T19:48:54.501Z,4.35
2023-05-14T19:51:25.006Z,4.90
2023-05-14T19:53:54.516Z,4.53
2023-05-14T19:56:24.743Z,4.80
2023-05-14T19:58:55.193Z,5.03
2023-05-14T20:01:21.666Z,5.00
2023-05-14T20:03:51.174Z,5.32
2023-05-14T20:06:20.846Z,5.53
2023-05-14T20:08:47.312Z,5.07
2023-05-14T20:11:16.527Z,6.00
2023-05-14T20:13:45.796Z,5.95
2023-05-14T20:16:13.530Z,5.50
2023-05-14T20:18:46.151Z,5.70
2023-05-14T20:21:12.664Z,5.85
2023-05-14T20:23:42.292Z,6.30
2023-05-14T20:26:11.870Z,6.00
2023-05-14T20:28:38.226Z,5.55
2023-05-14T20:31:09.528Z,5.43
2023-05-14T20:33:36.057Z,5.28
2023-05-14T20:36:12.180Z,5.15
2023-05-14T20:38:38.596Z,5.90
2023-05-14T20:41:05.005Z,5.32
2023-05-14T20:43:34.472Z,5.60
2023-05-14T20:46:05.739Z,5.78
2023-05-14T20:48:38.564Z,5.50
2023-05-14T20:51:06.463Z,5.38
2023-05-14T20:53:35.669Z,6.20
2023-05-14T20:56:02.315Z,5.63
2023-05-14T20:58:31.727Z,5.60
2023-05-14T21:00:59.808Z,5.55
2023-05-14T21:03:27.053Z,5.88
2023-05-14T21:05:55.930Z,5.38
2023-05-14T21:08:26.065Z,5.37
2023-05-14T21:10:55.007Z,5.32
2023-05-14T21:13:21.377Z,6.00
2023-05-14T21:18:44.834Z,5.55
2023-05-14T21:21:17.613Z,5.40
2023-05-14T21:23:43.930Z,5.95
2023-05-14T21:26:10.351Z,6.50
2023-05-14T21:28:39.696Z,5.88
2023-05-14T21:31:08.871Z,6.10
2023-05-14T21:33:35.486Z,5.43
2023-05-14T21:36:08.828Z,6.03
2023-05-14T21:38:35.513Z,5.30
2023-05-14T21:41:07.508Z,5.70
2023-05-14T21:43:36.844Z,5.45
2023-05-14T21:46:05.807Z,5.77
2023-05-14T21:48:32.294Z,6.07
2023-05-14T21:50:58.763Z,5.93
2023-05-14T21:53:25.288Z,5.72
2023-05-14T21:58:38.351Z,5.57
2023-05-14T22:01:04.884Z,5.60
2023-05-14T22:03:31.392Z,5.57
2023-05-14T22:06:01.007Z,6.57
2023-05-14T22:08:30.956Z,5.55
2023-05-14T22:11:04.996Z,5.90
2023-05-14T22:13:31.344Z,6.25
2023-05-14T22:16:09.318Z,5.90
2023-05-14T22:18:40.105Z,6.35
2023-05-14T22:21:10.568Z,6.13
2023-05-14T22:23:37.465Z,5.37
2023-05-14T22:26:04.154Z,6.25
2023-05-14T22:28:33.585Z,6.20
2023-05-14T22:31:04.116Z,6.50
2023-05-14T22:36:19.469Z,6.57
2023-05-14T22:38:46.177Z,6.68
2023-05-14T22:41:12.640Z,6.78
2023-05-14T22:46:25.301Z,6.45
2023-05-14T22:48:51.765Z,6.60
2023-05-14T22:51:18.237Z,7.07
2023-05-14T22:53:45.342Z,6.88
2023-05-14T22:56:18.846Z,6.32
2023-05-14T22:58:46.401Z,7.13
2023-05-14T23:01:13.048Z,7.67
2023-05-14T23:03:42.267Z,6.97
2023-05-14T23:06:17.073Z,8.50
2023-05-14T23:08:47.675Z,7.70
2023-05-14T23:11:15.141Z,7.43
2023-05-14T23:13:48.652Z,8.50
2023-05-14T23:16:18.046Z,7.38
2023-05-14T23:18:47.232Z,8.15
2023-05-14T23:21:14.194Z,8.07
2023-05-14T23:26:26.785Z,8.43
2023-05-14T23:28:56.268Z,7.85
2023-05-14T23:31:22.986Z,8.15
2023-05-14T23:33:49.600Z,8.35
2023-05-14T23:36:18.882Z,8.35
2023-05-14T23:38:45.299Z,7.90
2023-05-14T23:41:21.670Z,8.15
2023-05-14T23:43:49.183Z,8.10
2023-05-14T23:46:18.353Z,7.65
2023-05-14T23:48:44.791Z,8.45
2023-05-14T23:51:11.444Z,8.80
2023-05-14T23:53:38.100Z,8.02
2023-05-14T23:56:04.608Z,8.60
2023-05-14T23:58:31.191Z,8.38
